Time;durP1;ratioP1;P1;durP2;ratioP2;P2;SDS_P1;SDS_P2;PMS_P1;PMS_P2;Temp;Humidity;BMP_temperature;BMP_pressure;BME280_temperature;BME280_humidity;BME280_pressure;Samples;Min_cycle;Max_cycle;Signal;HPM_P1;HPM_P2
2021/07/14 00:00:34;;;;;;;14.68;11.32;;;25.20;68.00;;;;;;5033727;28;20036;-64
2021/07/14 00:03:00;;;;;;;14.80;11.35;;;25.20;68.10;;;;;;5035001;28;20029;-63
2021/07/14 00:05:25;;;;;;;13.55;11.00;;;25.20;68.30;;;;;;5034704;28;20048;-63
2021/07/14 00:07:51;;;;;;;14.38;11.30;;;25.20;68.60;;;;;;5033492;28;20043;-62
2021/07/14 00:10:19;;;;;;;14.40;10.65;;;25.10;68.60;;;;;;5034667;28;20022;-64
2021/07/14 00:12:52;;;;;;;14.20;10.55;;;25.10;69.00;;;;;;5033596;28;20045;-62
2021/07/14 00:23:32;;;;;;;11.85;9.20;;;25.10;69.40;;;;;;5033695;28;20470;-62
2021/07/14 00:25:58;;;;;;;14.40;11.38;;;25.00;69.50;;;;;;5034879;28;20017;-63
2021/07/14 00:28:24;;;;;;;13.63;10.45;;;25.00;69.60;;;;;;5016799;28;20392;-62
2021/07/14 00:30:54;;;;;;;13.88;10.90;;;25.00;69.70;;;;;;5034356;28;20083;-62
2021/07/14 00:33:20;;;;;;;13.80;10.77;;;25.00;69.80;;;;;;5034656;28;20025;-62
2021/07/14 00:35:46;;;;;;;15.10;11.45;;;25.00;70.50;;;;;;5034539;28;20050;-62
2021/07/14 00:38:12;;;;;;;14.63;11.88;;;24.90;70.10;;;;;;5033964;28;20072;-63
2021/07/14 00:40:38;;;;;;;16.40;12.48;;;24.90;70.20;;;;;;5034092;28;20032;-63
2021/07/14 00:43:04;;;;;;;15.50;12.70;;;24.80;70.40;;;;;;5034132;28;20022;-63
2021/07/14 00:45:29;;;;;;;15.48;12.95;;;24.80;70.80;;;;;;5034196;28;20021;-63
2021/07/14 00:47:57;;;;;;;14.85;12.27;;;24.80;70.90;;;;;;5033855;28;20057;-63
2021/07/14 00:50:23;;;;;;;14.85;12.35;;;24.80;70.90;;;;;;5034047;28;20388;-63
2021/07/14 00:52:49;;;;;;;15.60;12.60;;;24.70;71.00;;;;;;5032755;28;20021;-63
2021/07/14 00:55:14;;;;;;;16.60;13.20;;;24.70;71.30;;;;;;5032774;28;20026;-63
2021/07/14 00:57:40;;;;;;;16.08;13.15;;;24.70;71.50;;;;;;5033793;28;20025;-63
2021/07/14 01:00:07;;;;;;;17.98;13.55;;;24.60;71.60;;;;;;5032700;28;20128;-63
2021/07/14 01:02:33;;;;;;;17.25;14.23;;;24.60;71.60;;;;;;5033147;28;20049;-63
2021/07/14 01:05:04;;;;;;;19.13;16.13;;;24.60;72.50;;;;;;5032574;28;20444;-62
2021/07/14 01:07:53;;;;;;;16.85;13.55;;;24.60;72.80;;;;;;5032246;28;20045;-62
2021/07/14 01:10:33;;;;;;;17.13;13.80;;;24.60;73.20;;;;;;5022435;28;20037;-62
2021/07/14 01:13:03;;;;;;;16.25;13.00;;;24.60;73.20;;;;;;5033706;28;20037;-62
2021/07/14 01:15:38;;;;;;;15.48;12.88;;;24.60;73.30;;;;;;5033576;28;20021;-62
2021/07/14 01:18:10;;;;;;;14.85;12.18;;;24.60;73.50;;;;;;5032240;28;20071;-62
2021/07/14 01:20:47;;;;;;;;;;;24.60;73.90;;;;;;5032790;28;20080;-62
2021/07/14 01:23:40;;;;;;;14.32;11.02;;;24.50;74.70;;;;;;5033574;28;20303;-62
2021/07/14 01:26:15;;;;;;;12.88;11.32;;;24.50;73.60;;;;;;5032103;28;20025;-63
2021/07/14 01:28:43;;;;;;;12.40;10.75;;;24.50;74.00;;;;;;5033289;28;20036;-63
2021/07/14 01:31:11;;;;;;;13.93;10.88;;;24.50;74.00;;;;;;5031953;28;20022;-63
2021/07/14 01:33:38;;;;;;;12.63;10.40;;;24.40;74.10;;;;;;5015562;28;20021;-63
2021/07/14 01:36:09;;;;;;;14.35;11.52;;;24.40;74.10;;;;;;5031788;28;20018;-62
2021/07/14 01:38:35;;;;;;;14.02;11.30;;;24.40;74.50;;;;;;5033160;28;20068;-63
2021/07/14 01:41:01;;;;;;;13.43;11.32;;;24.40;74.60;;;;;;5015486;28;20029;-62
2021/07/14 01:43:26;;;;;;;12.57;10.93;;;24.40;74.80;;;;;;5031821;28;20104;-63
2021/07/14 01:45:54;;;;;;;14.20;11.23;;;24.40;74.80;;;;;;5031762;28;20025;-62
2021/07/14 01:48:19;;;;;;;12.50;10.52;;;24.40;74.90;;;;;;5031822;28;20072;-63
2021/07/14 01:50:45;;;;;;;15.15;11.55;;;24.30;74.90;;;;;;5031630;28;20061;-62
2021/07/14 01:53:11;;;;;;;15.13;11.57;;;24.30;75.20;;;;;;5031623;28;20020;-63
2021/07/14 01:55:38;;;;;;;15.23;12.70;;;24.30;75.30;;;;;;5031602;28;20018;-63
2021/07/14 01:58:03;;;;;;;15.43;12.20;;;24.30;75.50;;;;;;5031511;28;20037;-62
2021/07/14 02:00:29;;;;;;;13.93;11.48;;;24.30;75.60;;;;;;5031915;28;20022;-63
2021/07/14 02:05:50;;;;;;;13.80;11.43;;;24.20;75.80;;;;;;5000435;28;20041;-63
2021/07/14 02:08:16;;;;;;;12.65;10.85;;;24.20;75.80;;;;;;5031287;28;20538;-63
2021/07/14 02:10:41;;;;;;;14.93;11.88;;;24.20;76.00;;;;;;5031360;28;20033;-63
2021/07/14 02:13:07;;;;;;;14.90;12.32;;;24.10;76.10;;;;;;5031407;28;20384;-63
2021/07/14 02:15:33;;;;;;;15.45;12.50;;;24.10;76.30;;;;;;5031462;28;20021;-63
2021/07/14 02:18:04;;;;;;;14.23;11.50;;;24.10;76.30;;;;;;5014775;28;20140;-63
2021/07/14 02:20:30;;;;;;;14.65;11.88;;;24.10;76.30;;;;;;5032289;28;20048;-63
2021/07/14 02:22:55;;;;;;;14.00;11.63;;;24.10;76.30;;;;;;5032649;28;20469;-63
2021/07/14 02:25:21;;;;;;;14.43;11.98;;;24.10;76.40;;;;;;5032453;28;20452;-63
2021/07/14 02:27:47;;;;;;;13.88;11.50;;;24.10;76.40;;;;;;5032381;28;20037;-63
2021/07/14 02:30:21;;;;;;;15.30;12.25;;;24.10;76.50;;;;;;5032193;28;20033;-63
2021/07/14 02:32:53;;;;;;;14.20;11.60;;;24.10;76.70;;;;;;5031912;28;20071;-63
2021/07/14 02:35:19;;;;;;;14.18;11.50;;;24.10;76.60;;;;;;5032053;28;20022;-63
2021/07/14 02:37:47;;;;;;;14.40;11.45;;;24.20;76.70;;;;;;5032193;28;20380;-63
2021/07/14 02:40:16;;;;;;;12.50;10.52;;;24.10;76.70;;;;;;5031872;28;20025;-63
2021/07/14 02:42:42;;;;;;;13.90;12.02;;;24.20;76.70;;;;;;5030613;28;20523;-63
2021/07/14 02:45:08;;;;;;;16.10;12.73;;;24.20;76.80;;;;;;5030664;28;20029;-63
2021/07/14 02:47:41;;;;;;;15.02;12.85;;;24.20;76.90;;;;;;5031672;28;20033;-63
2021/07/14 02:50:14;;;;;;;13.93;11.70;;;24.30;77.00;;;;;;5030494;28;20033;-63
2021/07/14 02:52:40;;;;;;;13.45;11.50;;;24.30;76.80;;;;;;5030416;28;20113;-63
2021/07/14 02:55:06;;;;;;;15.80;12.68;;;24.30;76.80;;;;;;5030777;28;20104;-63
2021/07/14 02:57:33;;;;;;;15.27;12.63;;;24.30;76.90;;;;;;5030645;28;20489;-64
2021/07/14 02:59:59;;;;;;;13.90;12.05;;;24.30;76.80;;;;;;5030583;28;20129;-63
2021/07/14 03:02:24;;;;;;;15.00;12.60;;;24.40;77.00;;;;;;5030297;28;20116;-63
2021/07/14 03:04:51;;;;;;;13.70;12.00;;;24.40;76.90;;;;;;5030417;28;20027;-63
2021/07/14 03:07:18;;;;;;;14.35;12.32;;;24.50;77.40;;;;;;5031316;28;20053;-63
2021/07/14 03:09:44;;;;;;;13.93;11.63;;;24.50;76.90;;;;;;5030328;28;20080;-62
2021/07/14 03:12:12;;;;;;;13.27;11.20;;;24.50;76.70;;;;;;5030144;28;20037;-64
2021/07/14 03:14:40;;;;;;;13.23;11.32;;;24.60;76.70;;;;;;5030131;28;20025;-64
2021/07/14 03:17:06;;;;;;;12.75;11.15;;;24.60;76.60;;;;;;5030233;28;20025;-63
2021/07/14 03:19:32;;;;;;;13.15;11.13;;;24.70;76.60;;;;;;5030130;28;20027;-64
2021/07/14 03:21:58;;;;;;;14.00;12.15;;;24.70;76.50;;;;;;5030111;28;20476;-63
2021/07/14 03:24:23;;;;;;;15.20;11.55;;;24.80;76.60;;;;;;5029700;28;20040;-63
2021/07/14 03:26:49;;;;;;;13.18;10.80;;;24.80;76.40;;;;;;5030039;28;20036;-62
2021/07/14 03:29:14;;;;;;;12.85;10.82;;;24.90;76.40;;;;;;5029993;28;20595;-62
2021/07/14 03:31:40;;;;;;;12.27;10.07;;;24.90;76.30;;;;;;5013513;28;20384;-63
2021/07/14 03:34:06;;;;;;;13.50;11.77;;;25.00;76.20;;;;;;5029915;28;20377;-63
2021/07/14 03:36:31;;;;;;;12.93;10.77;;;25.10;76.20;;;;;;5029850;28;20057;-63
2021/07/14 03:38:57;;;;;;;11.68;10.02;;;25.10;76.10;;;;;;5030024;28;20081;-63
2021/07/14 03:41:22;;;;;;;12.25;10.35;;;25.10;75.90;;;;;;5030058;28;20036;-63
2021/07/14 03:43:49;;;;;;;11.10;9.85;;;25.20;75.80;;;;;;5029764;28;20075;-63
2021/07/14 03:46:15;;;;;;;12.57;10.70;;;25.30;75.80;;;;;;5031149;28;20087;-63
2021/07/14 03:48:40;;;;;;;12.55;10.52;;;25.30;75.70;;;;;;5029752;28;20544;-63
2021/07/14 03:51:06;;;;;;;14.45;11.15;;;25.40;75.60;;;;;;5029606;28;20044;-63
2021/07/14 03:53:32;;;;;;;11.48;9.70;;;25.50;75.60;;;;;;5030006;28;20499;-63
2021/07/14 03:55:57;;;;;;;11.40;10.15;;;25.50;75.40;;;;;;5031398;28;20028;-63
2021/07/14 03:58:24;;;;;;;10.65;9.38;;;25.60;75.30;;;;;;5029734;28;20056;-63
2021/07/14 04:00:50;;;;;;;11.18;9.10;;;25.60;75.10;;;;;;5029595;28;20085;-63
2021/07/14 04:03:24;;;;;;;11.07;9.45;;;25.70;75.10;;;;;;5030996;28;20469;-62
2021/07/14 04:05:53;;;;;;;12.20;10.65;;;25.70;75.10;;;;;;5030862;28;20380;-63
2021/07/14 04:08:23;;;;;;;11.07;9.88;;;25.80;74.90;;;;;;5031011;28;20018;-62
2021/07/14 04:10:48;;;;;;;12.25;9.40;;;25.90;74.80;;;;;;5029572;28;20045;-63
2021/07/14 04:13:14;;;;;;;10.60;8.57;;;25.90;74.50;;;;;;5030895;28;20053;-64
2021/07/14 04:15:39;;;;;;;10.35;8.60;;;26.00;74.40;;;;;;5029703;28;20018;-63
2021/07/14 04:18:07;;;;;;;14.05;9.98;;;26.00;74.20;;;;;;5030688;28;20017;-63
2021/07/14 04:20:33;;;;;;;9.82;8.65;;;26.10;74.10;;;;;;5029843;28;20080;-63
2021/07/14 04:22:59;;;;;;;10.30;9.18;;;26.10;74.00;;;;;;5030842;28;20026;-63
2021/07/14 04:25:25;;;;;;;10.70;9.18;;;26.20;73.90;;;;;;5062457;28;20021;-63
2021/07/14 04:27:50;;;;;;;11.05;9.15;;;26.20;73.60;;;;;;5062775;28;20053;-63
2021/07/14 04:30:17;;;;;;;10.23;8.13;;;26.20;73.40;;;;;;5030968;28;20906;-63
2021/07/14 04:32:43;;;;;;;9.48;8.00;;;26.30;73.30;;;;;;5062783;28;20079;-63
2021/07/14 04:35:09;;;;;;;10.38;8.98;;;26.40;73.20;;;;;;5030719;28;20030;-65
2021/07/14 04:37:34;;;;;;;9.27;8.07;;;26.40;73.00;;;;;;5032485;28;20029;-63
2021/07/14 04:40:00;;;;;;;10.80;9.70;;;26.50;72.90;;;;;;5066421;28;20083;-63
2021/07/14 04:42:26;;;;;;;11.82;9.75;;;26.50;72.80;;;;;;5065774;28;20108;-63
2021/07/14 04:44:52;;;;;;;10.68;8.88;;;26.50;72.60;;;;;;5033829;28;20109;-63
2021/07/14 04:47:19;;;;;;;9.57;8.52;;;26.50;72.50;;;;;;5033770;28;20388;-62
2021/07/14 04:49:44;;;;;;;9.93;8.60;;;26.60;72.40;;;;;;5033899;28;20041;-63
2021/07/14 04:52:10;;;;;;;10.65;8.70;;;26.60;72.30;;;;;;5033333;28;20384;-63
2021/07/14 04:54:36;;;;;;;9.07;7.88;;;26.70;72.20;;;;;;5033286;28;20523;-63
2021/07/14 04:57:02;;;;;;;10.10;9.00;;;26.70;72.10;;;;;;5048709;28;20108;-63
2021/07/14 04:59:28;;;;;;;11.30;10.10;;;26.80;72.00;;;;;;5033532;28;20564;-63
2021/07/14 05:01:53;;;;;;;10.60;9.35;;;26.80;71.80;;;;;;5033386;28;20028;-64
2021/07/14 05:04:19;;;;;;;10.60;9.40;;;26.90;71.70;;;;;;5033684;28;20056;-64
2021/07/14 05:06:45;;;;;;;10.85;9.18;;;26.90;71.50;;;;;;5033413;28;20107;-64
2021/07/14 05:09:11;;;;;;;10.40;8.90;;;26.90;71.40;;;;;;5033494;28;20496;-62
2021/07/14 05:11:37;;;;;;;9.98;8.98;;;27.00;71.30;;;;;;5033512;28;20109;-63
2021/07/14 05:14:03;;;;;;;10.15;9.05;;;27.00;71.10;;;;;;5033501;28;20499;-63
2021/07/14 05:16:28;;;;;;;10.90;9.43;;;27.10;71.10;;;;;;5034230;28;20425;-64
2021/07/14 05:18:54;;;;;;;10.63;9.52;;;27.20;71.00;;;;;;5033346;28;20072;-64
2021/07/14 05:21:20;;;;;;;11.85;10.63;;;27.30;70.80;;;;;;5033160;28;20477;-64
2021/07/14 05:23:45;;;;;;;13.45;10.48;;;27.30;70.40;;;;;;5031979;28;20032;-64
2021/07/14 05:26:11;;;;;;;10.93;9.73;;;27.30;70.30;;;;;;5033110;28;20033;-63
2021/07/14 05:28:37;;;;;;;10.40;8.90;;;27.30;70.20;;;;;;5033218;28;20494;-64
2021/07/14 05:31:03;;;;;;;10.40;9.05;;;27.40;70.20;;;;;;5032920;28;20030;-64
2021/07/14 05:33:28;;;;;;;9.93;8.93;;;27.40;70.10;;;;;;5032900;28;20025;-64
2021/07/14 05:35:56;;;;;;;9.90;8.65;;;27.50;70.10;;;;;;5032991;28;20461;-64
2021/07/14 05:38:22;;;;;;;11.20;9.77;;;27.50;69.90;;;;;;5031929;28;20421;-63
2021/07/14 05:40:48;;;;;;;10.20;9.10;;;27.70;69.80;;;;;;5032826;28;20056;-63
2021/07/14 05:43:14;;;;;;;9.52;8.32;;;27.70;69.50;;;;;;5032798;28;20022;-65
2021/07/14 05:45:40;;;;;;;10.27;9.18;;;27.80;69.30;;;;;;5032809;28;20041;-63
2021/07/14 05:48:06;;;;;;;9.30;8.30;;;27.80;68.90;;;;;;5032348;28;20033;-63
2021/07/14 05:50:31;;;;;;;9.65;8.48;;;27.90;68.90;;;;;;5032768;28;20105;-63
2021/07/14 05:52:57;;;;;;;9.65;8.40;;;27.90;68.70;;;;;;5032467;28;20527;-63
2021/07/14 05:55:22;;;;;;;8.38;7.28;;;28.00;68.60;;;;;;5032741;28;20116;-64
2021/07/14 05:57:51;;;;;;;9.75;7.43;;;28.10;68.40;;;;;;5032749;28;20018;-64
2021/07/14 06:00:17;;;;;;;8.50;7.43;;;28.20;68.20;;;;;;5032499;28;20021;-64
2021/07/14 06:02:43;;;;;;;8.60;7.40;;;28.20;67.80;;;;;;5032599;28;20087;-64
2021/07/14 06:05:10;;;;;;;9.02;7.22;;;28.30;67.70;;;;;;5031573;28;20095;-64
2021/07/14 06:07:35;;;;;;;9.63;6.78;;;28.40;67.60;;;;;;5032309;28;20563;-64
2021/07/14 06:10:01;;;;;;;8.10;6.70;;;28.50;67.40;;;;;;5032784;28;20033;-64
2021/07/14 06:12:27;;;;;;;7.82;6.68;;;28.60;67.30;;;;;;5032290;28;20039;-64
2021/07/14 06:14:52;;;;;;;7.70;6.82;;;28.70;67.00;;;;;;5032333;28;20021;-64
2021/07/14 06:17:18;;;;;;;8.38;7.10;;;28.80;66.80;;;;;;5031989;28;20017;-64
2021/07/14 06:19:44;;;;;;;11.65;8.98;;;28.90;66.40;;;;;;5031967;28;20025;-64
2021/07/14 06:22:10;;;;;;;9.02;7.97;;;28.90;65.70;;;;;;5064129;28;20033;-64
2021/07/14 06:24:35;;;;;;;9.68;8.13;;;28.90;65.40;;;;;;5031842;28;20025;-64
2021/07/14 06:27:01;;;;;;;8.13;6.72;;;29.00;65.10;;;;;;5063606;28;20025;-64
2021/07/14 06:29:26;;;;;;;9.50;7.35;;;29.00;65.20;;;;;;5031735;28;20053;-64
2021/07/14 06:31:52;;;;;;;7.82;6.57;;;29.00;64.90;;;;;;5031560;28;20028;-64
2021/07/14 06:34:18;;;;;;;7.35;6.07;;;29.20;64.80;;;;;;5030420;28;20049;-64
2021/07/14 06:36:43;;;;;;;7.05;5.85;;;29.30;64.50;;;;;;5031965;28;20075;-64
2021/07/14 06:39:09;;;;;;;7.43;5.95;;;29.40;64.40;;;;;;5031607;28;20021;-64
2021/07/14 06:41:35;;;;;;;7.90;5.57;;;29.60;64.20;;;;;;5031571;28;20111;-63
2021/07/14 06:44:01;;;;;;;7.55;5.70;;;29.70;63.90;;;;;;5031673;28;20025;-64
2021/07/14 06:46:27;;;;;;;8.00;5.85;;;29.90;63.70;;;;;;5031787;28;20354;-65
2021/07/14 06:48:53;;;;;;;6.93;5.80;;;30.00;63.30;;;;;;5063554;28;20068;-64
2021/07/14 06:51:19;;;;;;;7.40;5.97;;;30.10;62.70;;;;;;5031313;28;20059;-64
2021/07/14 06:53:44;;;;;;;9.43;6.20;;;30.20;62.30;;;;;;5031533;28;20427;-64
2021/07/14 06:56:10;;;;;;;7.20;5.30;;;30.40;61.90;;;;;;5031058;28;20048;-64
2021/07/14 06:58:37;;;;;;;7.38;6.07;;;30.40;61.40;;;;;;5031456;28;20029;-65
2021/07/14 07:01:03;;;;;;;6.35;5.18;;;30.50;61.00;;;;;;5062535;28;20021;-65
2021/07/14 07:03:29;;;;;;;6.20;5.05;;;30.60;60.90;;;;;;5046386;28;20412;-63
2021/07/14 07:05:55;;;;;;;6.35;5.28;;;30.70;60.80;;;;;;5030972;28;20053;-63
2021/07/14 07:08:20;;;;;;;7.68;5.53;;;30.80;60.60;;;;;;5031310;28;20028;-64
2021/07/14 07:10:47;;;;;;;7.25;5.28;;;30.90;60.30;;;;;;5031356;28;20029;-64
2021/07/14 07:13:15;;;;;;;7.20;6.32;;;31.00;60.10;;;;;;5031226;28;20021;-63
2021/07/14 07:15:45;;;;;;;6.90;5.90;;;31.10;59.40;;;;;;5031270;28;20013;-63
2021/07/14 07:18:11;;;;;;;7.70;5.68;;;31.10;59.10;;;;;;5031045;28;20076;-64
2021/07/14 07:20:36;;;;;;;7.55;5.53;;;31.20;59.20;;;;;;5030917;28;20061;-64
2021/07/14 07:23:02;;;;;;;7.20;5.40;;;31.20;59.10;;;;;;5031187;28;20380;-64
2021/07/14 07:25:28;;;;;;;6.45;5.35;;;31.30;58.90;;;;;;5031252;28;20037;-64
2021/07/14 07:27:56;;;;;;;7.30;5.38;;;31.40;58.80;;;;;;5031169;28;20053;-64
2021/07/14 07:30:22;;;;;;;6.72;5.80;;;31.50;58.40;;;;;;5031149;28;20052;-64
2021/07/14 07:32:47;;;;;;;6.50;5.53;;;31.50;58.00;;;;;;5029706;28;20029;-64
2021/07/14 07:35:13;;;;;;;7.25;5.07;;;31.60;57.80;;;;;;5031151;28;20025;-65
2021/07/14 07:37:38;;;;;;;6.30;5.40;;;31.60;57.80;;;;;;5030992;28;20122;-63
2021/07/14 07:40:05;;;;;;;7.88;5.90;;;31.70;57.70;;;;;;5030991;28;20152;-64
2021/07/14 07:42:31;;;;;;;6.63;5.38;;;31.70;57.30;;;;;;5030841;28;20111;-64
2021/07/14 07:44:57;;;;;;;6.97;5.25;;;31.70;57.20;;;;;;5030968;28;20057;-64
2021/07/14 07:47:22;;;;;;;5.93;4.88;;;31.80;57.20;;;;;;5029431;28;20033;-62
2021/07/14 07:49:48;;;;;;;7.22;5.68;;;31.90;57.00;;;;;;5030115;28;20041;-63
2021/07/14 07:52:14;;;;;;;6.65;5.72;;;32.00;56.40;;;;;;5030833;28;20040;-64
2021/07/14 07:54:40;;;;;;;6.95;5.70;;;32.00;56.40;;;;;;5031378;28;20144;-64
2021/07/14 07:57:06;;;;;;;8.00;5.80;;;32.10;56.30;;;;;;5030873;28;20026;-64
2021/07/14 07:59:34;;;;;;;6.68;5.78;;;32.20;56.30;;;;;;5030871;28;20021;-64
2021/07/14 08:02:00;;;;;;;6.78;5.75;;;32.20;56.30;;;;;;5030454;28;20025;-64
2021/07/14 08:04:25;;;;;;;7.32;5.40;;;32.40;56.30;;;;;;5030970;28;20040;-64
2021/07/14 08:06:51;;;;;;;5.95;4.95;;;32.60;56.50;;;;;;5029381;28;20045;-64
2021/07/14 08:09:16;;;;;;;6.38;5.57;;;32.70;56.50;;;;;;5030956;28;20484;-64
2021/07/14 08:11:42;;;;;;;6.47;5.30;;;32.90;56.40;;;;;;5033130;28;20021;-64
2021/07/14 08:14:08;;;;;;;7.03;5.82;;;33.10;56.30;;;;;;5034523;28;20445;-64
2021/07/14 08:16:33;;;;;;;6.60;5.40;;;33.30;55.20;;;;;;5034293;28;20072;-63
2021/07/14 08:18:59;;;;;;;6.78;5.70;;;33.60;55.00;;;;;;5034360;28;20091;-64
2021/07/14 08:21:25;;;;;;;6.45;5.50;;;33.80;54.70;;;;;;5034504;28;20128;-63
2021/07/14 08:23:51;;;;;;;6.20;5.40;;;34.00;54.30;;;;;;5034450;28;20025;-64
2021/07/14 08:26:16;;;;;;;7.05;6.05;;;34.20;54.10;;;;;;5034153;28;20033;-64
2021/07/14 08:28:42;;;;;;;7.00;5.50;;;34.50;53.40;;;;;;5034426;28;20036;-64
2021/07/14 08:31:08;;;;;;;7.22;5.95;;;34.80;53.30;;;;;;5066193;28;20109;-64
2021/07/14 08:33:34;;;;;;;6.57;5.53;;;35.00;52.60;;;;;;5034511;28;20022;-64
2021/07/14 08:35:59;;;;;;;6.38;5.10;;;35.30;52.40;;;;;;5034426;28;20100;-64
2021/07/14 08:38:26;;;;;;;6.78;5.68;;;35.60;52.30;;;;;;5066719;28;20419;-63
2021/07/14 08:40:52;;;;;;;8.60;5.30;;;35.90;51.50;;;;;;5034507;28;20018;-64
2021/07/14 08:43:21;;;;;;;8.60;5.20;;;36.20;50.90;;;;;;5034020;28;20399;-64
2021/07/14 08:45:47;;;;;;;6.25;4.70;;;36.50;50.40;;;;;;5065472;28;20044;-64
2021/07/14 08:48:14;;;;;;;6.43;4.47;;;36.80;50.10;;;;;;5034359;28;20429;-64
2021/07/14 08:50:44;;;;;;;5.22;4.32;;;37.10;49.50;;;;;;5065773;28;20025;-64
2021/07/14 08:53:20;;;;;;;7.47;5.20;;;37.40;49.00;;;;;;5064835;28;20103;-64
2021/07/14 08:55:46;;;;;;;6.40;5.28;;;37.80;46.40;;;;;;5033748;28;20296;-63
2021/07/14 08:58:16;;;;;;;8.48;5.20;;;38.20;47.30;;;;;;5033623;28;20021;-64
2021/07/14 09:00:42;;;;;;;5.97;4.10;;;38.40;47.40;;;;;;5033845;28;20024;-64
2021/07/14 09:03:08;;;;;;;6.00;4.85;;;38.60;47.10;;;;;;5065831;28;20041;-63
2021/07/14 09:05:34;;;;;;;5.30;4.30;;;38.90;46.20;;;;;;5033375;28;20082;-63
2021/07/14 09:07:59;;;;;;;4.80;3.83;;;39.20;45.70;;;;;;5033730;28;20049;-63
2021/07/14 09:10:25;;;;;;;5.93;4.50;;;39.50;45.80;;;;;;5048666;28;20037;-64
2021/07/14 09:12:53;;;;;;;5.72;4.25;;;39.80;44.50;;;;;;5033345;28;20030;-63
2021/07/14 09:15:21;;;;;;;5.93;4.95;;;40.00;44.50;;;;;;5064768;28;20018;-63
2021/07/14 09:17:51;;;;;;;5.70;4.70;;;40.30;43.50;;;;;;5033543;28;20111;-64
2021/07/14 09:20:23;;;;;;;6.43;4.35;;;40.40;43.20;;;;;;5033330;28;20061;-64
2021/07/14 09:23:00;;;;;;;6.10;5.00;;;40.60;42.30;;;;;;5032655;28;20116;-64
2021/07/14 09:25:25;;;;;;;8.65;6.80;;;40.70;43.20;;;;;;5031661;28;20053;-64
2021/07/14 09:28:03;;;;;;;8.48;6.03;;;40.90;43.40;;;;;;5033348;28;20083;-64
2021/07/14 09:30:30;;;;;;;6.28;5.43;;;41.20;41.10;;;;;;5033193;28;20393;-64
2021/07/14 09:33:00;;;;;;;6.20;5.38;;;41.30;42.50;;;;;;5033077;28;20060;-64
2021/07/14 09:35:33;;;;;;;7.07;6.10;;;41.50;42.40;;;;;;5033119;28;20096;-64
2021/07/14 09:38:01;;;;;;;6.82;5.78;;;41.60;42.20;;;;;;5032774;28;20050;-63
2021/07/14 09:40:28;;;;;;;6.90;6.20;;;41.70;42.20;;;;;;5031732;28;20063;-66
2021/07/14 09:42:58;;;;;;;7.32;6.03;;;41.90;41.70;;;;;;5031679;28;20025;-64
2021/07/14 09:46:04;;;;;;;7.70;6.40;;;42.00;41.50;;;;;;5032986;28;20096;-64
2021/07/14 09:48:34;;;;;;;6.70;6.00;;;42.10;40.40;;;;;;4991135;28;20533;-64
2021/07/14 09:51:09;;;;;;;7.30;6.50;;;42.10;40.90;;;;;;5022869;28;20041;-64
2021/07/14 09:53:35;;;;;;;6.80;6.13;;;42.20;40.50;;;;;;5031669;28;20056;-65
2021/07/14 09:56:32;;;;;;;8.65;6.88;;;42.30;39.90;;;;;;5032516;28;20048;-64
2021/07/14 09:59:11;;;;;;;6.65;5.88;;;42.50;39.60;;;;;;5030585;28;20029;-64
2021/07/14 10:01:50;;;;;;;6.70;6.00;;;42.50;39.00;;;;;;5032899;28;20049;-64
2021/07/14 10:04:24;;;;;;;7.03;6.25;;;42.50;39.50;;;;;;5032351;28;20263;-65
2021/07/14 10:06:51;;;;;;;6.40;5.80;;;42.70;38.90;;;;;;5030953;28;20050;-65
2021/07/14 10:09:23;;;;;;;6.53;5.80;;;42.90;39.20;;;;;;5031331;28;20037;-65
2021/07/14 10:11:49;;;;;;;7.18;5.30;;;42.90;39.10;;;;;;5032451;28;20025;-65
2021/07/14 10:14:14;;;;;;;6.18;5.32;;;43.10;39.10;;;;;;5032282;28;20029;-64
2021/07/14 10:16:41;;;;;;;6.38;5.65;;;43.20;39.30;;;;;;5032303;28;20021;-64
2021/07/14 10:19:12;;;;;;;7.07;5.68;;;43.40;38.60;;;;;;5032181;28;20032;-64
2021/07/14 10:21:41;;;;;;;6.47;5.40;;;43.40;38.40;;;;;;5032142;28;20047;-64
2021/07/14 10:24:10;;;;;;;6.65;5.50;;;43.60;38.40;;;;;;5032086;28;20030;-64
2021/07/14 10:26:37;;;;;;;6.18;5.00;;;43.60;38.00;;;;;;5063494;28;20530;-64
2021/07/14 10:29:03;;;;;;;6.65;5.18;;;43.70;38.10;;;;;;5032230;28;20029;-64
2021/07/14 10:31:29;;;;;;;5.93;5.20;;;43.90;37.50;;;;;;5032067;28;20038;-64
2021/07/14 10:33:55;;;;;;;6.10;4.90;;;43.90;37.20;;;;;;5063072;28;20040;-64
2021/07/14 10:36:23;;;;;;;5.32;4.38;;;43.90;37.10;;;;;;5031534;28;20366;-64
2021/07/14 10:38:52;;;;;;;6.25;4.90;;;44.00;37.30;;;;;;5047208;28;20032;-64
2021/07/14 10:41:18;;;;;;;6.45;5.28;;;44.10;37.40;;;;;;5031992;28;20025;-65
2021/07/14 10:43:47;;;;;;;6.40;4.70;;;44.20;37.30;;;;;;5047255;28;20037;-64
2021/07/14 10:46:14;;;;;;;6.18;4.90;;;44.30;37.30;;;;;;5031407;28;20021;-64
2021/07/14 10:48:41;;;;;;;6.72;4.68;;;44.50;37.40;;;;;;5063540;28;20079;-64
2021/07/14 10:51:07;;;;;;;6.13;4.72;;;44.70;37.40;;;;;;5031713;28;20551;-64
2021/07/14 10:53:33;;;;;;;5.90;5.00;;;44.80;37.20;;;;;;5031797;28;20045;-64
2021/07/14 10:55:58;;;;;;;5.95;5.10;;;45.10;37.00;;;;;;5047039;28;20036;-64
2021/07/14 10:58:24;;;;;;;6.93;4.60;;;45.10;36.80;;;;;;5047037;28;20028;-63
2021/07/14 11:00:50;;;;;;;5.70;4.78;;;45.10;36.90;;;;;;5031808;28;20539;-64
2021/07/14 11:03:38;;;;;;;6.35;4.53;;;45.30;36.50;;;;;;5031533;28;20030;-65
2021/07/14 11:06:04;;;;;;;5.43;4.20;;;45.40;36.10;;;;;;5062971;28;20021;-64
2021/07/14 11:08:48;;;;;;;5.95;4.05;;;45.40;36.40;;;;;;5031550;28;20030;-65
2021/07/14 11:11:23;;;;;;;5.38;3.97;;;45.50;36.20;;;;;;5031502;28;20033;-64
2021/07/14 11:14:09;;;;;;;5.63;3.67;;;45.60;35.80;;;;;;5064052;28;20031;-64
2021/07/14 11:16:36;;;;;;;5.18;3.67;;;45.70;36.00;;;;;;5031437;28;20107;-64
2021/07/14 11:19:09;;;;;;;4.60;3.42;;;45.80;36.10;;;;;;5031150;28;20014;-64
2021/07/14 11:21:56;;;;;;;4.72;3.35;;;46.00;35.40;;;;;;5031405;28;20076;-63
2021/07/14 11:24:42;;;;;;;5.10;3.00;;;46.00;34.90;;;;;;5031457;28;20380;-63
2021/07/14 11:27:27;;;;;;;4.20;2.88;;;46.10;33.30;;;;;;5031710;28;20029;-63
2021/07/14 11:30:02;;;;;;;4.68;2.60;;;46.20;33.10;;;;;;5009947;28;20069;-63
2021/07/14 11:32:33;;;;;;;4.55;2.92;;;46.10;34.40;;;;;;5031101;28;20033;-63
2021/07/14 11:35:00;;;;;;;4.30;2.90;;;46.20;33.70;;;;;;5031362;28;20022;-66
2021/07/14 11:37:33;;;;;;;5.40;2.63;;;46.20;34.00;;;;;;5031229;28;20120;-63
2021/07/14 11:40:17;;;;;;;4.60;3.00;;;46.50;33.80;;;;;;5031077;28;20025;-63
2021/07/14 11:43:11;;;;;;;4.30;2.50;;;46.70;31.90;;;;;;5031014;28;20022;-63
2021/07/14 11:45:47;;;;;;;4.32;2.75;;;46.80;32.60;;;;;;5030767;28;20067;-64
2021/07/14 11:48:16;;;;;;;4.10;2.50;;;46.90;32.30;;;;;;5033831;28;20064;-64
2021/07/14 11:50:49;;;;;;;4.57;2.50;;;47.00;33.00;;;;;;5034917;28;20068;-64
2021/07/14 11:56:26;;;;;;;3.92;2.40;;;47.40;32.30;;;;;;5035325;28;20025;-64
2021/07/14 11:58:52;;;;;;;6.82;2.55;;;47.50;31.70;;;;;;5035158;28;20025;-64
2021/07/14 12:01:18;;;;;;;4.72;2.38;;;47.60;32.20;;;;;;5034986;28;20384;-65
2021/07/14 12:06:49;;;;;;;5.38;2.08;;;47.90;31.10;;;;;;5034924;28;20504;-65
2021/07/14 12:09:15;;;;;;;5.22;2.40;;;48.00;30.90;;;;;;5035008;28;20040;-64
2021/07/14 12:11:43;;;;;;;3.22;2.15;;;48.00;31.30;;;;;;5034794;28;20021;-64
2021/07/14 12:14:25;;;;;;;3.75;2.10;;;48.00;31.00;;;;;;5034614;28;20026;-64
2021/07/14 12:16:56;;;;;;;4.47;2.20;;;48.10;30.80;;;;;;5034562;28;20423;-63
2021/07/14 12:19:32;;;;;;;3.92;2.20;;;48.20;31.10;;;;;;5033498;28;20017;-64
2021/07/14 12:22:08;;;;;;;4.75;2.20;;;48.40;30.60;;;;;;5034611;28;20381;-64
2021/07/14 12:24:35;;;;;;;3.60;1.90;;;48.50;30.30;;;;;;5033031;28;20388;-64
2021/07/14 12:27:06;;;;;;;3.55;2.10;;;48.50;30.60;;;;;;5066161;28;20032;-64
2021/07/14 12:29:31;;;;;;;3.10;1.90;;;48.60;30.50;;;;;;5034458;28;20028;-63
2021/07/14 12:31:58;;;;;;;4.93;1.90;;;48.70;30.60;;;;;;5034299;28;20029;-63
2021/07/14 12:34:27;;;;;;;3.10;1.77;;;48.80;30.50;;;;;;5049600;28;20021;-64
2021/07/14 12:36:54;;;;;;;;;;;48.80;30.20;;;;;;5066234;28;20017;-64
2021/07/14 12:39:27;;;;;;;2.92;1.60;;;48.80;29.90;;;;;;5033259;28;19909;-64
2021/07/14 12:41:55;;;;;;;3.25;1.70;;;48.90;30.10;;;;;;5034005;28;20028;-63
2021/07/14 12:44:20;;;;;;;4.30;1.92;;;49.10;30.10;;;;;;5034153;28;20423;-64
2021/07/14 12:46:46;;;;;;;2.63;1.58;;;49.10;30.00;;;;;;5034008;28;20041;-63
2021/07/14 12:49:16;;;;;;;3.22;1.75;;;49.20;29.80;;;;;;5034402;28;20364;-64
2021/07/14 12:52:08;;;;;;;3.55;1.70;;;49.40;29.70;;;;;;5065719;28;20029;-64
2021/07/14 12:54:34;;;;;;;2.75;1.70;;;49.30;29.40;;;;;;5033876;28;20017;-64
2021/07/14 12:57:24;;;;;;;3.67;1.80;;;49.20;29.80;;;;;;5033100;28;20478;-64
2021/07/14 12:59:49;;;;;;;;;;;49.50;29.30;;;;;;5033045;28;20017;-64
2021/07/14 13:02:18;;;;;;;4.05;1.70;;;49.40;29.30;;;;;;5033864;28;19912;-64